ASA65 PAJN-PANC
Flight info
| Callsign | ASA65 |
|---|---|
| Flight time | 1h 34m |
| Altitude | 34000 |
| Route | CHLKT2 ALATY JOH WITTI5 |
| Aircraft | B738/M-SDE2E3FGHIRWXY/LB1 |
Departure
| Time | 2026-04-25 17:45 |
|---|---|
| Airport | Juneau International Airport (PAJN) |
Arrival
| Time | 2026-04-25 19:19 |
|---|---|
| Airport | Ted Stevens Anchorage International Airport (PANC) |
| Time | Latitude | Longitude | Altitude | Speed | Heading |
|---|---|---|---|---|---|
| 2026-04-25 17:33 | 58.35823 | -134.58301 | 33 ft | 0 kts | 360° |
| 2026-04-25 17:35 | 58.35811 | -134.58302 | 33 ft | 4 kts | 6° |
| 2026-04-25 17:35 | 58.35786 | -134.58314 | 31 ft | 4 kts | 29° |
| 2026-04-25 17:35 | 58.35765 | -134.58343 | 33 ft | 2 kts | 47° |
| 2026-04-25 17:35 | 58.35764 | -134.58346 | 33 ft | 0 kts | 47° |
| 2026-04-25 17:37 | 58.35767 | -134.58335 | 31 ft | 3 kts | 71° |
| 2026-04-25 17:38 | 58.35747 | -134.58305 | 31 ft | 0 kts | 173° |
| 2026-04-25 17:39 | 58.35721 | -134.58304 | 33 ft | 7 kts | 175° |
| 2026-04-25 17:39 | 58.35684 | -134.58192 | 33 ft | 13 kts | 104° |
| 2026-04-25 17:39 | 58.35661 | -134.58023 | 31 ft | 14 kts | 105° |
| 2026-04-25 17:40 | 58.35631 | -134.57805 | 31 ft | 19 kts | 104° |
| 2026-04-25 17:40 | 58.35599 | -134.57572 | 33 ft | 20 kts | 105° |
| 2026-04-25 17:40 | 58.35557 | -134.57275 | 33 ft | 25 kts | 105° |
| 2026-04-25 17:40 | 58.35512 | -134.56955 | 33 ft | 24 kts | 104° |
| 2026-04-25 17:41 | 58.35469 | -134.56639 | 33 ft | 23 kts | 105° |
| 2026-04-25 17:41 | 58.35425 | -134.56329 | 33 ft | 24 kts | 104° |
| 2026-04-25 17:41 | 58.35385 | -134.56035 | 32 ft | 23 kts | 105° |
| 2026-04-25 17:41 | 58.35348 | -134.55775 | 33 ft | 16 kts | 105° |
| 2026-04-25 17:42 | 58.35313 | -134.55526 | 33 ft | 22 kts | 105° |
| 2026-04-25 17:42 | 58.35275 | -134.55318 | 33 ft | 15 kts | 135° |
| 2026-04-25 17:42 | 58.35190 | -134.55309 | 33 ft | 10 kts | 206° |
| 2026-04-25 17:42 | 58.35181 | -134.55376 | 32 ft | 0 kts | 285° |
| 2026-04-25 17:44 | 58.35239 | -134.55785 | 32 ft | 74 kts | 285° |
| 2026-04-25 17:44 | 58.35438 | -134.57220 | 34 ft | 147 kts | 285° |
| 2026-04-25 17:45 | 58.35636 | -134.58634 | 113 ft | 183 kts | 285° |
| 2026-04-25 17:45 | 58.35851 | -134.60255 | 648 ft | 195 kts | 281° |
| 2026-04-25 17:45 | 58.35956 | -134.64685 | 2159 ft | 204 kts | 270° |
| 2026-04-25 17:45 | 58.35967 | -134.66521 | 2740 ft | 207 kts | 271° |
| 2026-04-25 17:46 | 58.35995 | -134.69315 | 3480 ft | 216 kts | 275° |
| 2026-04-25 17:46 | 58.36336 | -134.73211 | 4370 ft | 237 kts | 283° |
| 2026-04-25 17:46 | 58.36780 | -134.76406 | 4897 ft | 260 kts | 284° |
| 2026-04-25 17:46 | 58.37087 | -134.78689 | 5559 ft | 261 kts | 283° |
| 2026-04-25 17:47 | 58.37574 | -134.82041 | 6471 ft | 272 kts | 287° |
| 2026-04-25 17:47 | 58.38253 | -134.85738 | 6228 ft | 317 kts | 290° |
| 2026-04-25 17:47 | 58.39110 | -134.89518 | 6432 ft | 306 kts | 294° |
| 2026-04-25 17:47 | 58.39751 | -134.92202 | 6697 ft | 288 kts | 292° |
| 2026-04-25 17:48 | 58.40999 | -134.98066 | 7310 ft | 269 kts | 289° |
| 2026-04-25 17:48 | 58.41631 | -135.01402 | 7933 ft | 267 kts | 288° |
| 2026-04-25 17:48 | 58.42250 | -135.04793 | 8672 ft | 273 kts | 287° |
| 2026-04-25 17:49 | 58.42871 | -135.08238 | 9501 ft | 276 kts | 287° |
| 2026-04-25 17:49 | 58.43586 | -135.11675 | 10275 ft | 283 kts | 295° |
| 2026-04-25 17:49 | 58.44618 | -135.15040 | 10555 ft | 307 kts | 300° |
| 2026-04-25 17:49 | 58.45832 | -135.18605 | 10830 ft | 330 kts | 301° |
| 2026-04-25 17:50 | 58.47122 | -135.22302 | 11433 ft | 337 kts | 301° |
| 2026-04-25 17:50 | 58.48427 | -135.26055 | 12130 ft | 341 kts | 301° |
| 2026-04-25 17:50 | 58.49718 | -135.29810 | 12853 ft | 344 kts | 300° |
| 2026-04-25 17:50 | 58.51033 | -135.33674 | 13594 ft | 348 kts | 300° |
| 2026-04-25 17:51 | 58.51660 | -135.35531 | 13936 ft | 350 kts | 300° |
| 2026-04-25 17:51 | 58.52776 | -135.38856 | 14492 ft | 354 kts | 299° |
| 2026-04-25 17:51 | 58.54109 | -135.42851 | 15192 ft | 358 kts | 299° |
| 2026-04-25 17:51 | 58.55454 | -135.46894 | 15843 ft | 362 kts | 299° |
| 2026-04-25 17:52 | 58.56810 | -135.50989 | 16490 ft | 366 kts | 298° |
| 2026-04-25 17:52 | 58.57715 | -135.53726 | 16915 ft | 369 kts | 298° |
| 2026-04-25 17:52 | 58.58997 | -135.57608 | 17513 ft | 373 kts | 298° |
| 2026-04-25 17:52 | 58.60293 | -135.61547 | 18095 ft | 377 kts | 298° |
| 2026-04-25 17:53 | 58.61702 | -135.65826 | 18758 ft | 379 kts | 298° |
| 2026-04-25 17:53 | 58.63115 | -135.70124 | 18979 ft | 380 kts | 298° |
| 2026-04-25 17:53 | 58.64502 | -135.74352 | 18975 ft | 378 kts | 298° |
| 2026-04-25 17:53 | 58.65912 | -135.78657 | 19025 ft | 385 kts | 298° |
| 2026-04-25 17:54 | 58.67352 | -135.83071 | 19478 ft | 390 kts | 298° |
| 2026-04-25 17:54 | 58.68791 | -135.87488 | 20128 ft | 390 kts | 298° |
| 2026-04-25 17:54 | 58.70239 | -135.91934 | 20665 ft | 393 kts | 298° |
| 2026-04-25 17:54 | 58.71696 | -135.96417 | 21168 ft | 397 kts | 298° |
| 2026-04-25 17:55 | 58.73147 | -136.00891 | 21704 ft | 401 kts | 297° |
| 2026-04-25 17:55 | 58.74629 | -136.05469 | 22217 ft | 404 kts | 297° |
| 2026-04-25 17:55 | 58.76123 | -136.10095 | 22698 ft | 408 kts | 297° |
| 2026-04-25 17:55 | 58.77628 | -136.14763 | 23214 ft | 412 kts | 297° |
| 2026-04-25 17:56 | 58.79143 | -136.19472 | 23711 ft | 415 kts | 297° |
| 2026-04-25 17:56 | 58.80673 | -136.24235 | 24144 ft | 419 kts | 297° |
| 2026-04-25 17:56 | 58.82216 | -136.29026 | 24544 ft | 421 kts | 297° |
| 2026-04-25 17:56 | 58.83759 | -136.33852 | 24982 ft | 423 kts | 296° |
| 2026-04-25 17:57 | 58.85306 | -136.38712 | 25405 ft | 426 kts | 296° |
| 2026-04-25 17:57 | 58.86860 | -136.43601 | 25795 ft | 429 kts | 296° |
| 2026-04-25 17:57 | 58.88423 | -136.48527 | 26201 ft | 431 kts | 296° |
| 2026-04-25 17:57 | 58.89463 | -136.51810 | 26453 ft | 433 kts | 296° |
| 2026-04-25 17:58 | 58.91575 | -136.58487 | 26947 ft | 436 kts | 296° |
| 2026-04-25 17:58 | 58.92650 | -136.61893 | 27205 ft | 438 kts | 296° |
| 2026-04-25 18:02 | 58.92982 | -136.62945 | 27285 ft | 439 kts | 296° |
| 2026-04-25 18:03 | 58.94578 | -136.68013 | 27656 ft | 442 kts | 296° |
| 2026-04-25 18:03 | 58.96069 | -136.72755 | 27993 ft | 444 kts | 296° |
| 2026-04-25 18:03 | 58.96688 | -136.74726 | 28147 ft | 444 kts | 296° |
| 2026-04-25 18:04 | 58.98298 | -136.79860 | 28527 ft | 446 kts | 296° |
| 2026-04-25 18:04 | 58.99916 | -136.85032 | 28862 ft | 449 kts | 295° |
| 2026-04-25 18:04 | 59.01517 | -136.90165 | 29131 ft | 451 kts | 295° |
| 2026-04-25 18:04 | 59.03148 | -136.95408 | 29480 ft | 454 kts | 295° |
| 2026-04-25 18:05 | 59.04781 | -137.00657 | 29835 ft | 456 kts | 295° |
| 2026-04-25 18:05 | 59.06424 | -137.05954 | 30153 ft | 458 kts | 295° |
| 2026-04-25 18:05 | 59.08072 | -137.11279 | 30432 ft | 460 kts | 295° |
| 2026-04-25 18:05 | 59.09725 | -137.16637 | 30677 ft | 462 kts | 295° |
| 2026-04-25 18:06 | 59.11381 | -137.22014 | 30940 ft | 463 kts | 295° |
| 2026-04-25 18:06 | 59.13033 | -137.27388 | 31298 ft | 462 kts | 295° |
| 2026-04-25 18:06 | 59.14678 | -137.32746 | 31737 ft | 459 kts | 295° |
| 2026-04-25 18:06 | 59.16312 | -137.38082 | 32081 ft | 458 kts | 294° |
| 2026-04-25 18:07 | 59.17944 | -137.43432 | 32367 ft | 459 kts | 294° |
| 2026-04-25 18:07 | 59.19558 | -137.48737 | 32675 ft | 459 kts | 294° |
| 2026-04-25 18:07 | 59.21189 | -137.54107 | 33040 ft | 458 kts | 294° |
| 2026-04-25 18:07 | 59.22809 | -137.59454 | 33426 ft | 457 kts | 294° |
| 2026-04-25 18:08 | 59.24424 | -137.64797 | 33786 ft | 456 kts | 294° |
| 2026-04-25 18:08 | 59.26032 | -137.70125 | 34143 ft | 454 kts | 294° |
| 2026-04-25 18:08 | 59.27635 | -137.75453 | 34284 ft | 457 kts | 294° |
| 2026-04-25 18:09 | 59.30887 | -137.86205 | 34267 ft | 458 kts | 294° |
| 2026-04-25 18:09 | 59.34069 | -137.96921 | 34307 ft | 454 kts | 294° |
| 2026-04-25 18:10 | 59.37213 | -138.07550 | 34287 ft | 453 kts | 294° |
| 2026-04-25 18:10 | 59.40375 | -138.18237 | 34294 ft | 452 kts | 294° |
| 2026-04-25 18:11 | 59.43180 | -138.29191 | 34320 ft | 443 kts | 283° |
| 2026-04-25 18:11 | 59.45013 | -138.40715 | 34311 ft | 441 kts | 280° |
| 2026-04-25 18:12 | 59.46736 | -138.52229 | 34303 ft | 441 kts | 280° |
| 2026-04-25 18:12 | 59.48522 | -138.63786 | 34313 ft | 442 kts | 281° |
| 2026-04-25 18:13 | 59.50345 | -138.75342 | 34281 ft | 441 kts | 281° |
| 2026-04-25 18:13 | 59.52168 | -138.86859 | 34296 ft | 441 kts | 281° |
| 2026-04-25 18:14 | 59.54884 | -139.04174 | 34306 ft | 443 kts | 282° |
| 2026-04-25 18:14 | 59.56703 | -139.15845 | 34295 ft | 444 kts | 282° |
| 2026-04-25 18:15 | 59.58495 | -139.27436 | 34293 ft | 445 kts | 282° |
| 2026-04-25 18:15 | 59.60290 | -139.39130 | 34289 ft | 445 kts | 281° |
| 2026-04-25 18:16 | 59.62074 | -139.50837 | 34297 ft | 446 kts | 281° |
| 2026-04-25 18:17 | 59.64741 | -139.68496 | 34289 ft | 446 kts | 282° |
| 2026-04-25 18:17 | 59.66504 | -139.80264 | 34296 ft | 446 kts | 282° |
| 2026-04-25 18:18 | 59.68254 | -139.92027 | 34290 ft | 445 kts | 282° |
| 2026-04-25 18:18 | 59.69978 | -140.03698 | 34291 ft | 445 kts | 281° |
| 2026-04-25 18:19 | 59.71699 | -140.15434 | 34279 ft | 439 kts | 281° |
| 2026-04-25 18:19 | 59.73394 | -140.27068 | 34325 ft | 444 kts | 281° |
| 2026-04-25 18:20 | 59.75115 | -140.39022 | 34309 ft | 454 kts | 281° |
| 2026-04-25 18:20 | 59.76859 | -140.51192 | 34302 ft | 461 kts | 281° |
| 2026-04-25 18:21 | 59.78606 | -140.63441 | 34283 ft | 461 kts | 281° |
| 2026-04-25 18:21 | 59.80342 | -140.75706 | 34289 ft | 461 kts | 281° |
| 2026-04-25 18:22 | 59.82051 | -140.87880 | 34286 ft | 461 kts | 281° |
| 2026-04-25 18:22 | 59.83770 | -141.00236 | 34293 ft | 461 kts | 280° |
| 2026-04-25 18:23 | 59.85457 | -141.12454 | 34286 ft | 461 kts | 280° |
| 2026-04-25 18:23 | 59.86291 | -141.24837 | 34298 ft | 443 kts | 256° |
| 2026-04-25 18:24 | 59.84786 | -141.36598 | 34295 ft | 436 kts | 248° |
| 2026-04-25 18:24 | 59.82990 | -141.48119 | 34283 ft | 436 kts | 247° |
| 2026-04-25 18:25 | 59.81181 | -141.59542 | 34281 ft | 435 kts | 247° |
| 2026-04-25 18:25 | 59.79357 | -141.70990 | 34282 ft | 434 kts | 247° |
| 2026-04-25 18:26 | 59.77529 | -141.82418 | 34280 ft | 434 kts | 247° |
| 2026-04-25 18:26 | 59.75728 | -141.93790 | 34287 ft | 434 kts | 246° |
| 2026-04-25 18:27 | 59.73954 | -142.05214 | 34275 ft | 433 kts | 246° |
| 2026-04-25 18:27 | 59.72194 | -142.16612 | 34278 ft | 432 kts | 246° |
| 2026-04-25 18:28 | 59.70439 | -142.27999 | 34271 ft | 431 kts | 246° |
| 2026-04-25 18:28 | 59.68687 | -142.39352 | 34272 ft | 431 kts | 246° |
| 2026-04-25 18:29 | 59.66069 | -142.56290 | 34272 ft | 430 kts | 246° |
| 2026-04-25 18:30 | 59.62561 | -142.78913 | 34292 ft | 430 kts | 246° |
| 2026-04-25 18:30 | 59.60844 | -142.90244 | 34277 ft | 431 kts | 247° |
| 2026-04-25 18:31 | 59.60351 | -142.96156 | 34262 ft | 445 kts | 263° |
| 2026-04-25 18:31 | 59.60753 | -143.02317 | 34289 ft | 463 kts | 278° |
| 2026-04-25 18:31 | 59.62062 | -143.08241 | 34285 ft | 480 kts | 294° |
| 2026-04-25 18:31 | 59.63971 | -143.13746 | 34281 ft | 487 kts | 299° |
| 2026-04-25 18:32 | 59.68124 | -143.24288 | 34263 ft | 488 kts | 301° |
| 2026-04-25 18:32 | 59.72365 | -143.34789 | 34263 ft | 488 kts | 301° |
| 2026-04-25 18:33 | 59.76493 | -143.45427 | 34274 ft | 483 kts | 297° |
| 2026-04-25 18:33 | 59.79686 | -143.54520 | 34299 ft | 483 kts | 296° |
| 2026-04-25 18:34 | 59.83521 | -143.65575 | 34287 ft | 483 kts | 296° |
| 2026-04-25 18:34 | 59.87321 | -143.76585 | 34276 ft | 482 kts | 296° |
| 2026-04-25 18:35 | 59.91093 | -143.87537 | 34279 ft | 482 kts | 296° |
| 2026-04-25 18:35 | 59.94882 | -143.98561 | 34293 ft | 481 kts | 296° |
| 2026-04-25 18:36 | 59.98665 | -144.09593 | 34278 ft | 482 kts | 296° |
| 2026-04-25 18:36 | 60.02451 | -144.20652 | 34284 ft | 482 kts | 296° |
| 2026-04-25 18:37 | 60.06236 | -144.31739 | 34279 ft | 482 kts | 296° |
| 2026-04-25 18:37 | 60.10018 | -144.42837 | 34281 ft | 482 kts | 296° |
| 2026-04-25 18:38 | 60.13775 | -144.53893 | 34328 ft | 482 kts | 296° |
| 2026-04-25 18:38 | 60.17544 | -144.65071 | 34296 ft | 482 kts | 296° |
| 2026-04-25 18:39 | 60.21292 | -144.76237 | 34279 ft | 481 kts | 296° |
| 2026-04-25 18:39 | 60.24968 | -144.87455 | 34290 ft | 479 kts | 295° |
| 2026-04-25 18:40 | 60.28670 | -144.98537 | 34286 ft | 482 kts | 298° |
| 2026-04-25 18:40 | 60.32379 | -145.09682 | 34293 ft | 473 kts | 290° |
| 2026-04-25 18:41 | 60.34691 | -145.21850 | 34295 ft | 459 kts | 277° |
| 2026-04-25 18:41 | 60.36078 | -145.34342 | 34287 ft | 454 kts | 273° |
| 2026-04-25 18:42 | 60.37055 | -145.44718 | 34015 ft | 447 kts | 273° |
| 2026-04-25 18:42 | 60.37836 | -145.52886 | 33632 ft | 435 kts | 273° |
| 2026-04-25 18:42 | 60.38417 | -145.58836 | 33350 ft | 428 kts | 273° |
| 2026-04-25 18:43 | 60.38993 | -145.64674 | 33081 ft | 420 kts | 273° |
| 2026-04-25 18:43 | 60.39562 | -145.70417 | 32803 ft | 413 kts | 273° |
| 2026-04-25 18:43 | 60.40120 | -145.76071 | 32581 ft | 406 kts | 274° |
| 2026-04-25 18:43 | 60.40668 | -145.81632 | 32309 ft | 399 kts | 274° |
| 2026-04-25 18:44 | 60.41203 | -145.87097 | 32043 ft | 393 kts | 274° |
| 2026-04-25 18:44 | 60.41729 | -145.92484 | 31781 ft | 387 kts | 274° |
| 2026-04-25 18:44 | 60.42244 | -145.97784 | 31517 ft | 381 kts | 274° |
| 2026-04-25 18:44 | 60.42748 | -146.03001 | 31282 ft | 376 kts | 273° |
| 2026-04-25 18:45 | 60.43244 | -146.08166 | 31030 ft | 371 kts | 273° |
| 2026-04-25 18:45 | 60.43732 | -146.13273 | 30781 ft | 369 kts | 273° |
| 2026-04-25 18:45 | 60.44211 | -146.18322 | 30550 ft | 370 kts | 273° |
| 2026-04-25 18:45 | 60.44697 | -146.23475 | 30306 ft | 373 kts | 273° |
| 2026-04-25 18:46 | 60.45185 | -146.28641 | 30024 ft | 372 kts | 274° |
| 2026-04-25 18:46 | 60.45669 | -146.33761 | 29741 ft | 370 kts | 274° |
| 2026-04-25 18:46 | 60.46149 | -146.38874 | 29433 ft | 368 kts | 274° |
| 2026-04-25 18:46 | 60.46625 | -146.43953 | 29178 ft | 365 kts | 274° |
| 2026-04-25 18:47 | 60.47095 | -146.48990 | 28886 ft | 363 kts | 274° |
| 2026-04-25 18:47 | 60.47559 | -146.54006 | 28602 ft | 361 kts | 274° |
| 2026-04-25 18:47 | 60.48024 | -146.59003 | 28373 ft | 360 kts | 275° |
| 2026-04-25 18:47 | 60.48668 | -146.63937 | 28334 ft | 364 kts | 281° |
| 2026-04-25 18:48 | 60.50288 | -146.73654 | 28322 ft | 367 kts | 282° |
| 2026-04-25 18:48 | 60.51125 | -146.78541 | 28198 ft | 368 kts | 282° |
| 2026-04-25 18:48 | 60.51958 | -146.83459 | 27897 ft | 368 kts | 282° |
| 2026-04-25 18:49 | 60.52781 | -146.88366 | 27633 ft | 364 kts | 282° |
| 2026-04-25 18:49 | 60.53577 | -146.93180 | 27369 ft | 361 kts | 281° |
| 2026-04-25 18:49 | 60.54369 | -146.97993 | 27102 ft | 359 kts | 281° |
| 2026-04-25 18:49 | 60.55154 | -147.02792 | 26840 ft | 357 kts | 281° |
| 2026-04-25 18:50 | 60.55933 | -147.07576 | 26579 ft | 356 kts | 281° |
| 2026-04-25 18:50 | 60.56708 | -147.12359 | 26350 ft | 356 kts | 281° |
| 2026-04-25 18:50 | 60.57479 | -147.17135 | 26100 ft | 355 kts | 281° |
| 2026-04-25 18:50 | 60.58248 | -147.21911 | 25851 ft | 355 kts | 281° |
| 2026-04-25 18:51 | 60.59013 | -147.26681 | 25595 ft | 355 kts | 281° |
| 2026-04-25 18:51 | 60.59519 | -147.29838 | 25430 ft | 354 kts | 281° |
| 2026-04-25 18:51 | 60.60538 | -147.36216 | 25101 ft | 354 kts | 281° |
| 2026-04-25 18:51 | 60.61298 | -147.40986 | 24854 ft | 354 kts | 281° |
| 2026-04-25 18:52 | 60.62056 | -147.45763 | 24611 ft | 354 kts | 281° |
| 2026-04-25 18:52 | 60.62812 | -147.50533 | 24337 ft | 353 kts | 281° |
| 2026-04-25 18:52 | 60.63564 | -147.55287 | 24120 ft | 352 kts | 281° |
| 2026-04-25 18:52 | 60.64303 | -147.59974 | 23875 ft | 351 kts | 281° |
| 2026-04-25 18:53 | 60.65047 | -147.64705 | 23590 ft | 348 kts | 281° |
| 2026-04-25 18:53 | 60.65781 | -147.69377 | 23306 ft | 344 kts | 281° |
| 2026-04-25 18:53 | 60.66507 | -147.74015 | 23053 ft | 341 kts | 281° |
| 2026-04-25 18:53 | 60.67223 | -147.78613 | 22772 ft | 340 kts | 281° |
| 2026-04-25 18:54 | 60.68645 | -147.87780 | 22237 ft | 338 kts | 281° |
| 2026-04-25 18:54 | 60.69353 | -147.92361 | 21963 ft | 338 kts | 281° |
| 2026-04-25 18:54 | 60.70059 | -147.96943 | 21691 ft | 337 kts | 281° |
| 2026-04-25 18:55 | 60.70761 | -148.01506 | 21430 ft | 337 kts | 281° |
| 2026-04-25 18:55 | 60.71452 | -148.06009 | 21166 ft | 336 kts | 281° |
| 2026-04-25 18:55 | 60.72149 | -148.10555 | 20908 ft | 335 kts | 281° |
| 2026-04-25 18:55 | 60.72843 | -148.15103 | 20654 ft | 335 kts | 280° |
| 2026-04-25 18:56 | 60.73535 | -148.19645 | 20414 ft | 333 kts | 281° |
| 2026-04-25 18:56 | 60.74218 | -148.24131 | 20133 ft | 329 kts | 280° |
| 2026-04-25 18:56 | 60.74893 | -148.28623 | 19714 ft | 331 kts | 280° |
| 2026-04-25 18:56 | 60.75565 | -148.33111 | 19404 ft | 329 kts | 280° |
| 2026-04-25 18:57 | 60.76220 | -148.37477 | 19422 ft | 313 kts | 280° |
| 2026-04-25 18:57 | 60.76847 | -148.41656 | 19173 ft | 304 kts | 279° |
| 2026-04-25 18:57 | 60.77455 | -148.45740 | 18814 ft | 296 kts | 279° |
| 2026-04-25 18:57 | 60.77848 | -148.48385 | 18571 ft | 291 kts | 279° |
| 2026-04-25 18:58 | 60.78620 | -148.53615 | 18019 ft | 282 kts | 279° |
| 2026-04-25 18:58 | 60.79723 | -148.61107 | 17002 ft | 270 kts | 279° |
| 2026-04-25 18:58 | 60.80257 | -148.64744 | 16518 ft | 265 kts | 279° |
| 2026-04-25 18:59 | 60.81299 | -148.71881 | 15569 ft | 259 kts | 280° |
| 2026-04-25 18:59 | 60.82299 | -148.78727 | 14978 ft | 241 kts | 280° |
| 2026-04-25 19:00 | 60.83235 | -148.85168 | 14478 ft | 233 kts | 280° |
| 2026-04-25 19:00 | 60.83693 | -148.88341 | 14238 ft | 232 kts | 280° |
| 2026-04-25 19:01 | 60.84619 | -148.94798 | 13722 ft | 241 kts | 281° |
| 2026-04-25 19:01 | 60.85094 | -148.98107 | 13449 ft | 241 kts | 281° |
| 2026-04-25 19:01 | 60.85568 | -149.01403 | 13177 ft | 240 kts | 281° |
| 2026-04-25 19:01 | 60.86040 | -149.04689 | 12905 ft | 239 kts | 281° |
| 2026-04-25 19:02 | 60.86978 | -149.11232 | 12393 ft | 238 kts | 280° |
| 2026-04-25 19:02 | 60.87442 | -149.14485 | 12132 ft | 238 kts | 280° |
| 2026-04-25 19:02 | 60.87901 | -149.17712 | 12005 ft | 235 kts | 280° |
| 2026-04-25 19:03 | 60.88504 | -149.21945 | 11955 ft | 230 kts | 282° |
| 2026-04-25 19:03 | 60.89577 | -149.27045 | 11958 ft | 239 kts | 290° |
| 2026-04-25 19:03 | 60.90301 | -149.30119 | 11965 ft | 239 kts | 290° |
| 2026-04-25 19:04 | 60.91743 | -149.36279 | 11951 ft | 238 kts | 290° |
| 2026-04-25 19:04 | 60.92447 | -149.39320 | 11913 ft | 231 kts | 290° |
| 2026-04-25 19:05 | 60.93751 | -149.44983 | 11524 ft | 210 kts | 289° |
| 2026-04-25 19:05 | 60.94982 | -149.50407 | 10742 ft | 208 kts | 289° |
| 2026-04-25 19:05 | 60.95590 | -149.53093 | 10354 ft | 207 kts | 289° |
| 2026-04-25 19:06 | 60.96192 | -149.55763 | 9983 ft | 205 kts | 289° |
| 2026-04-25 19:06 | 60.97365 | -149.60954 | 9470 ft | 198 kts | 289° |
| 2026-04-25 19:06 | 60.97950 | -149.63553 | 9298 ft | 203 kts | 289° |
| 2026-04-25 19:07 | 60.99152 | -149.68914 | 8951 ft | 206 kts | 290° |
| 2026-04-25 19:07 | 60.99753 | -149.71593 | 8779 ft | 204 kts | 290° |
| 2026-04-25 19:08 | 61.01386 | -149.76232 | 8464 ft | 201 kts | 315° |
| 2026-04-25 19:08 | 61.02424 | -149.78151 | 8289 ft | 204 kts | 315° |
| 2026-04-25 19:09 | 61.05561 | -149.84085 | 7935 ft | 203 kts | 314° |
| 2026-04-25 19:09 | 61.05911 | -149.84754 | 7933 ft | 203 kts | 314° |
| 2026-04-25 19:09 | 61.08697 | -149.90108 | 7473 ft | 221 kts | 314° |
| 2026-04-25 19:10 | 61.09811 | -149.92267 | 7165 ft | 217 kts | 311° |
| 2026-04-25 19:10 | 61.10500 | -149.94876 | 6911 ft | 201 kts | 272° |
| 2026-04-25 19:10 | 61.10502 | -149.97642 | 6777 ft | 187 kts | 264° |
| 2026-04-25 19:10 | 61.10471 | -150.00308 | 6614 ft | 185 kts | 264° |
| 2026-04-25 19:11 | 61.10439 | -150.02989 | 6468 ft | 187 kts | 264° |
| 2026-04-25 19:11 | 61.10406 | -150.05697 | 6307 ft | 189 kts | 264° |
| 2026-04-25 19:11 | 61.10373 | -150.08421 | 6147 ft | 190 kts | 264° |
| 2026-04-25 19:11 | 61.10341 | -150.11124 | 5986 ft | 190 kts | 264° |
| 2026-04-25 19:12 | 61.10308 | -150.13847 | 5834 ft | 190 kts | 264° |
| 2026-04-25 19:12 | 61.10275 | -150.16579 | 5682 ft | 190 kts | 264° |
| 2026-04-25 19:12 | 61.10242 | -150.19306 | 5529 ft | 190 kts | 264° |
| 2026-04-25 19:12 | 61.10207 | -150.22039 | 5375 ft | 190 kts | 264° |
| 2026-04-25 19:13 | 61.10171 | -150.24773 | 5222 ft | 190 kts | 264° |
| 2026-04-25 19:13 | 61.10135 | -150.27509 | 5069 ft | 190 kts | 264° |
| 2026-04-25 19:13 | 61.10099 | -150.30246 | 4907 ft | 191 kts | 264° |
| 2026-04-25 19:13 | 61.10376 | -150.32941 | 4704 ft | 198 kts | 297° |
| 2026-04-25 19:14 | 61.11394 | -150.34855 | 4339 ft | 200 kts | 333° |
| 2026-04-25 19:14 | 61.11801 | -150.35258 | 4244 ft | 198 kts | 336° |
| 2026-04-25 19:14 | 61.13947 | -150.36851 | 3687 ft | 193 kts | 356° |
| 2026-04-25 19:14 | 61.15234 | -150.36421 | 3205 ft | 191 kts | 29° |
| 2026-04-25 19:15 | 61.16104 | -150.34584 | 2909 ft | 174 kts | 73° |
| 2026-04-25 19:15 | 61.16462 | -150.32246 | 2691 ft | 169 kts | 77° |
| 2026-04-25 19:15 | 61.16670 | -150.29921 | 2475 ft | 159 kts | 86° |
| 2026-04-25 19:15 | 61.16756 | -150.27667 | 2272 ft | 156 kts | 90° |
| 2026-04-25 19:16 | 61.16772 | -150.25440 | 2115 ft | 155 kts | 92° |
| 2026-04-25 19:16 | 61.16773 | -150.23237 | 1869 ft | 149 kts | 92° |
| 2026-04-25 19:16 | 61.16773 | -150.21126 | 1679 ft | 144 kts | 91° |
| 2026-04-25 19:16 | 61.16773 | -150.19038 | 1489 ft | 146 kts | 91° |
| 2026-04-25 19:17 | 61.16774 | -150.16945 | 1300 ft | 145 kts | 91° |
| 2026-04-25 19:17 | 61.16774 | -150.15561 | 1168 ft | 146 kts | 90° |
| 2026-04-25 19:17 | 61.16776 | -150.12758 | 903 ft | 146 kts | 89° |
| 2026-04-25 19:17 | 61.16778 | -150.10660 | 710 ft | 147 kts | 89° |
| 2026-04-25 19:18 | 61.16781 | -150.08542 | 596 ft | 151 kts | 88° |
| 2026-04-25 19:18 | 61.16782 | -150.06362 | 421 ft | 152 kts | 89° |
| 2026-04-25 19:18 | 61.16783 | -150.04175 | 203 ft | 149 kts | 89° |
| 2026-04-25 19:18 | 61.16784 | -150.02786 | 141 ft | 138 kts | 89° |
| 2026-04-25 19:19 | 61.16785 | -150.01044 | 134 ft | 99 kts | 90° |
| 2026-04-25 19:19 | 61.16787 | -149.99926 | 129 ft | 56 kts | 90° |
| 2026-04-25 19:19 | 61.16787 | -149.99122 | 124 ft | 54 kts | 89° |
| 2026-04-25 19:19 | 61.16792 | -149.98658 | 116 ft | 43 kts | 84° |
| 2026-04-25 19:20 | 61.16901 | -149.98077 | 111 ft | 26 kts | 60° |
| 2026-04-25 19:20 | 61.17004 | -149.97810 | 111 ft | 23 kts | 17° |
| 2026-04-25 19:20 | 61.17111 | -149.97902 | 111 ft | 18 kts | 287° |
| 2026-04-25 19:20 | 61.17118 | -149.98192 | 114 ft | 22 kts | 269° |
| 2026-04-25 19:21 | 61.17117 | -149.98533 | 115 ft | 22 kts | 269° |
| 2026-04-25 19:21 | 61.17340 | -149.98669 | 107 ft | 22 kts | 39° |
| 2026-04-25 19:21 | 61.17456 | -149.98567 | 107 ft | 14 kts | 352° |
| 2026-04-25 19:22 | 61.17500 | -149.98522 | 106 ft | 5 kts | 72° |
| 2026-04-25 19:22 | 61.17504 | -149.98460 | 109 ft | 4 kts | 82° |
| 2026-04-25 19:22 | 61.17505 | -149.98445 | 109 ft | 0 kts | 82° |